Time;durP1;ratioP1;P1;durP2;ratioP2;P2;SDS_P1;SDS_P2;PMS_P1;PMS_P2;Temp;Humidity;BMP_temperature;BMP_pressure;BME280_temperature;BME280_humidity;BME280_pressure;Samples;Min_cycle;Max_cycle;Signal;HPM_P1;HPM_P2
2024/04/13 00:01:07;;;;;;;;;;;;;;;;;;5431447;26;5154;-57
2024/04/13 00:03:33;;;;;;;;;;;;;;;;;;5422941;26;5152;-57
2024/04/13 00:05:58;;;;;;;;;;;;;;;;;;5425078;26;4573;-57
2024/04/13 00:08:24;;;;;;;;;;;;;;;;;;5439849;26;3505;-57
2024/04/13 00:10:49;;;;;;;;;;;;;;;;;;5417750;26;5193;-58
2024/04/13 00:13:14;;;;;;;;;;;;;;;;;;5422800;26;5131;-57
2024/04/13 00:15:40;;;;;;;;;;;;;;;;;;5434648;26;5171;-57
2024/04/13 00:18:06;;;;;;;;;;;;;;;;;;5424575;26;4511;-58
2024/04/13 00:20:31;;;;;;;;;;;;;;;;;;5419891;26;3453;-57
2024/04/13 00:22:56;;;;;;;;;;;;;;;;;;5428143;26;5130;-57
2024/04/13 00:25:22;;;;;;;;;;;;;;;;;;5439277;26;5175;-57
2024/04/13 00:27:47;;;;;;;;;;;;;;;;;;5427068;26;4663;-57
2024/04/13 00:30:12;;;;;;;;;;;;;;;;;;5422312;26;5226;-58
2024/04/13 00:32:38;;;;;;;;;;;;;;;;;;5423634;26;1242;-57
2024/04/13 00:35:05;;;;;;;;;;;;;;;;;;5415186;26;4627;-57
2024/04/13 00:37:30;;;;;;;;;;;;;;;;;;5425199;26;5294;-57
2024/04/13 00:39:56;;;;;;;;;;;;;;;;;;5430806;26;5121;-57
2024/04/13 00:42:21;;;;;;;;;;;;;;;;;;5425046;26;4821;-57
2024/04/13 00:44:46;;;;;;;;;;;;;;;;;;5415277;26;4616;-57
2024/04/13 00:47:12;;;;;;;;;;;;;;;;;;5424212;26;3471;-57
2024/04/13 00:49:37;;;;;;;;;;;;;;;;;;5401506;26;5242;-57
2024/04/13 00:52:03;;;;;;;;;;;;;;;;;;5420827;26;5112;-58
2024/04/13 00:54:28;;;;;;;;;;;;;;;;;;5438683;26;4573;-58
2024/04/13 00:56:54;;;;;;;;;;;;;;;;;;5415771;26;5109;-57
2024/04/13 00:59:22;;;;;;;;;;;;;;;;;;5422996;26;1403;-57
2024/04/13 01:01:48;;;;;;;;;;;;;;;;;;5425966;26;5193;-57
2024/04/13 01:04:13;;;;;;;;;;;;;;;;;;5419889;26;5213;-58
2024/04/13 01:06:38;;;;;;;;;;;;;;;;;;5420791;26;5080;-57
2024/04/13 01:09:04;;;;;;;;;;;;;;;;;;5416192;26;5028;-58
2024/04/13 01:11:29;;;;;;;;;;;;;;;;;;5391539;26;1244;-57
2024/04/13 01:13:56;;;;;;;;;;;;;;;;;;5396240;26;4670;-57
2024/04/13 01:16:27;;;;;;;;;;;;;;;;;;5386163;26;5060;-57
2024/04/13 01:18:52;;;;;;;;;;;;;;;;;;5391265;26;4721;-57
2024/04/13 01:21:18;;;;;;;;;;;;;;;;;;5392620;26;5243;-57
2024/04/13 01:23:44;;;;;;;;;;;;;;;;;;5399886;26;1833;-57
2024/04/13 01:26:09;;;;;;;;;;;;;;;;;;5386296;26;5004;-57
2024/04/13 01:28:36;;;;;;;;;;;;;;;;;;5391133;26;5183;-57
2024/04/13 01:31:02;;;;;;;;;;;;;;;;;;5379511;26;5167;-58
2024/04/13 01:33:28;;;;;;;;;;;;;;;;;;5385376;26;5165;-57
2024/04/13 01:35:57;;;;;;;;;;;;;;;;;;5415266;26;5031;-58
2024/04/13 01:38:23;;;;;;;;;;;;;;;;;;5429716;26;1355;-57
2024/04/13 01:40:48;;;;;;;;;;;;;;;;;;5397936;26;5081;-57
2024/04/13 01:43:14;;;;;;;;;;;;;;;;;;5390538;26;5277;-57
2024/04/13 01:45:39;;;;;;;;;;;;;;;;;;5383555;26;5087;-57
2024/04/13 01:48:04;;;;;;;;;;;;;;;;;;5397905;26;4626;-57
2024/04/13 01:50:30;;;;;;;;;;;;;;;;;;5388360;26;3381;-57
2024/04/13 01:52:55;;;;;;;;;;;;;;;;;;5381443;26;5190;-57
2024/04/13 01:55:21;;;;;;;;;;;;;;;;;;5386332;26;5273;-57
2024/04/13 01:57:47;;;;;;;;;;;;;;;;;;5398298;26;5025;-57
2024/04/13 02:00:15;;;;;;;;;;;;;;;;;;5388715;26;5208;-57
2024/04/13 02:02:42;;;;;;;;;;;;;;;;;;5424737;26;1829;-57
2024/04/13 02:05:07;;;;;;;;;;;;;;;;;;5411824;26;5070;-57
2024/04/13 02:07:33;;;;;;;;;;;;;;;;;;5385952;26;5154;-57
2024/04/13 02:09:59;;;;;;;;;;;;;;;;;;5382343;26;5325;-57
2024/04/13 02:12:24;;;;;;;;;;;;;;;;;;5387462;26;4560;-57
2024/04/13 02:14:50;;;;;;;;;;;;;;;;;;5383993;26;5165;-58
2024/04/13 02:17:16;;;;;;;;;;;;;;;;;;5419768;26;2562;-57
2024/04/13 02:19:41;;;;;;;;;;;;;;;;;;5390256;26;5115;-57
2024/04/13 02:22:07;;;;;;;;;;;;;;;;;;5378971;26;5287;-57
2024/04/13 02:24:32;;;;;;;;;;;;;;;;;;5391807;26;5191;-57
2024/04/13 02:26:57;;;;;;;;;;;;;;;;;;5384308;26;5125;-57
2024/04/13 02:29:25;;;;;;;;;;;;;;;;;;5374321;26;1367;-57
2024/04/13 02:31:51;;;;;;;;;;;;;;;;;;5374527;26;5033;-57
2024/04/13 02:34:16;;;;;;;;;;;;;;;;;;5374969;26;5106;-57
2024/04/13 02:36:42;;;;;;;;;;;;;;;;;;5395302;26;4603;-57
2024/04/13 02:39:08;;;;;;;;;;;;;;;;;;5407502;26;5214;-58
2024/04/13 02:41:34;;;;;;;;;;;;;;;;;;5386921;26;3486;-58
2024/04/13 02:43:59;;;;;;;;;;;;;;;;;;5393927;26;5238;-57
2024/04/13 02:46:24;;;;;;;;;;;;;;;;;;5387172;26;5103;-57
2024/04/13 02:48:50;;;;;;;;;;;;;;;;;;5378663;26;4561;-57
2024/04/13 02:51:16;;;;;;;;;;;;;;;;;;5380111;26;5277;-57
2024/04/13 02:53:41;;;;;;;;;;;;;;;;;;5394026;26;3695;-57
2024/04/13 02:56:07;;;;;;;;;;;;;;;;;;5395510;26;5006;-57
2024/04/13 02:58:32;;;;;;;;;;;;;;;;;;5381825;26;5501;-57
2024/04/13 03:00:58;;;;;;;;;;;;;;;;;;5392674;26;5137;-57
2024/04/13 03:03:24;;;;;;;;;;;;;;;;;;5385498;26;4593;-57
2024/04/13 03:06:07;;;;;;;;;;;;;;;;;;5379565;26;4805;-58
2024/04/13 03:08:32;;;;;;;;;;;;;;;;;;5390057;26;3687;-57
2024/04/13 03:10:58;;;;;;;;;;;;;;;;;;5381435;26;4671;-57
2024/04/13 03:13:23;;;;;;;;;;;;;;;;;;5378349;26;6233;-57
2024/04/13 03:15:58;;;;;;;;;;;;;;;;;;5396386;26;5106;-58
2024/04/13 03:18:25;;;;;;;;;;;;;;;;;;5380840;26;5371;-58
2024/04/13 03:20:51;;;;;;;;;;;;;;;;;;5381250;26;5072;-58
2024/04/13 03:23:16;;;;;;;;;;;;;;;;;;5378858;26;3868;-58
2024/04/13 03:25:41;;;;;;;;;;;;;;;;;;5390309;26;5327;-57
2024/04/13 03:28:08;;;;;;;;;;;;;;;;;;5380902;26;5148;-58
2024/04/13 03:30:33;;;;;;;;;;;;;;;;;;5376403;26;4578;-57
2024/04/13 03:32:59;;;;;;;;;;;;;;;;;;5392343;26;5244;-58
2024/04/13 03:35:24;;;;;;;;;;;;;;;;;;5389299;26;3511;-57
2024/04/13 03:37:49;;;;;;;;;;;;;;;;;;5377257;26;5162;-58
2024/04/13 03:40:15;;;;;;;;;;;;;;;;;;5377112;26;5169;-58
2024/04/13 03:42:42;;;;;;;;;;;;;;;;;;5393478;26;5414;-57
2024/04/13 03:45:07;;;;;;;;;;;;;;;;;;5392105;26;5264;-57
2024/04/13 03:47:33;;;;;;;;;;;;;;;;;;5386507;26;3521;-57
2024/04/13 03:49:58;;;;;;;;;;;;;;;;;;5396165;26;5118;-57
2024/04/13 03:52:23;;;;;;;;;;;;;;;;;;5392522;26;4707;-57
2024/04/13 03:54:49;;;;;;;;;;;;;;;;;;5419188;26;5020;-57
2024/04/13 03:57:14;;;;;;;;;;;;;;;;;;5427433;26;4740;-57
2024/04/13 03:59:39;;;;;;;;;;;;;;;;;;5427035;26;3355;-57
2024/04/13 04:02:05;;;;;;;;;;;;;;;;;;5425259;26;5099;-57
2024/04/13 04:04:30;;;;;;;;;;;;;;;;;;5415771;26;5051;-57
2024/04/13 04:06:55;;;;;;;;;;;;;;;;;;5424152;26;5149;-57
2024/04/13 04:09:21;;;;;;;;;;;;;;;;;;5431253;26;4679;-57
2024/04/13 04:11:46;;;;;;;;;;;;;;;;;;5419499;26;5128;-57
2024/04/13 04:14:11;;;;;;;;;;;;;;;;;;5429207;26;3561;-58
2024/04/13 04:16:37;;;;;;;;;;;;;;;;;;5430882;26;5265;-57
2024/04/13 04:19:02;;;;;;;;;;;;;;;;;;5424137;26;5185;-58
2024/04/13 04:21:28;;;;;;;;;;;;;;;;;;5416789;26;4585;-57
2024/04/13 04:23:53;;;;;;;;;;;;;;;;;;5422649;26;5160;-57
2024/04/13 04:26:18;;;;;;;;;;;;;;;;;;5437080;26;3481;-57
2024/04/13 04:28:45;;;;;;;;;;;;;;;;;;5428412;26;5214;-57
2024/04/13 04:31:13;;;;;;;;;;;;;;;;;;5423465;26;5071;-57
2024/04/13 04:33:38;;;;;;;;;;;;;;;;;;5430062;26;4693;-57
2024/04/13 04:36:04;;;;;;;;;;;;;;;;;;5428838;26;4720;-57
2024/04/13 04:38:29;;;;;;;;;;;;;;;;;;5411794;26;1251;-58
2024/04/13 04:40:55;;;;;;;;;;;;;;;;;;5423540;26;4616;-57
2024/04/13 04:43:20;;;;;;;;;;;;;;;;;;5423798;26;5077;-57
2024/04/13 04:45:45;;;;;;;;;;;;;;;;;;5423776;26;5116;-57
2024/04/13 04:48:11;;;;;;;;;;;;;;;;;;5429820;26;5225;-58
2024/04/13 04:50:36;;;;;;;;;;;;;;;;;;5439191;26;3449;-57
2024/04/13 04:53:02;;;;;;;;;;;;;;;;;;5430054;26;5092;-58
2024/04/13 04:55:28;;;;;;;;;;;;;;;;;;5421145;26;5319;-58
2024/04/13 04:57:54;;;;;;;;;;;;;;;;;;5427024;26;5119;-57
2024/04/13 05:00:19;;;;;;;;;;;;;;;;;;5430383;26;5127;-59
2024/04/13 05:02:45;;;;;;;;;;;;;;;;;;5422862;26;3713;-57
2024/04/13 05:05:10;;;;;;;;;;;;;;;;;;5397631;26;5119;-58
2024/04/13 05:07:36;;;;;;;;;;;;;;;;;;5392683;26;4562;-57
2024/04/13 05:10:01;;;;;;;;;;;;;;;;;;5390324;26;4874;-57
2024/04/13 05:12:26;;;;;;;;;;;;;;;;;;5370474;26;5087;-57
2024/04/13 05:14:52;;;;;;;;;;;;;;;;;;5429056;26;5134;-58
2024/04/13 05:17:17;;;;;;;;;;;;;;;;;;5426930;26;3692;-57
2024/04/13 05:19:43;;;;;;;;;;;;;;;;;;5424966;26;5124;-58
2024/04/13 05:22:09;;;;;;;;;;;;;;;;;;5398815;26;5240;-57
2024/04/13 05:24:34;;;;;;;;;;;;;;;;;;5376865;26;5850;-58
2024/04/13 05:27:05;;;;;;;;;;;;;;;;;;5420950;26;5304;-58
2024/04/13 05:29:31;;;;;;;;;;;;;;;;;;5382401;26;3589;-57
2024/04/13 05:31:57;;;;;;;;;;;;;;;;;;5390399;26;5029;-57
2024/04/13 05:34:23;;;;;;;;;;;;;;;;;;5394316;26;4677;-57
2024/04/13 05:36:48;;;;;;;;;;;;;;;;;;5385885;26;4558;-57
2024/04/13 05:39:14;;;;;;;;;;;;;;;;;;5374239;26;5450;-58
2024/04/13 05:41:39;;;;;;;;;;;;;;;;;;5389172;26;1263;-58
2024/04/13 05:44:05;;;;;;;;;;;;;;;;;;5384616;26;5287;-58
2024/04/13 05:46:30;;;;;;;;;;;;;;;;;;5378157;26;4705;-58
2024/04/13 05:48:56;;;;;;;;;;;;;;;;;;5404645;26;5151;-57
2024/04/13 05:51:21;;;;;;;;;;;;;;;;;;5390847;26;5443;-58
2024/04/13 05:53:46;;;;;;;;;;;;;;;;;;5388851;26;5049;-57
2024/04/13 05:56:12;;;;;;;;;;;;;;;;;;5391858;26;3502;-57
2024/04/13 05:58:37;;;;;;;;;;;;;;;;;;5413316;26;5246;-57
2024/04/13 06:01:03;;;;;;;;;;;;;;;;;;5424195;26;5150;-58
2024/04/13 06:03:28;;;;;;;;;;;;;;;;;;5423929;26;5048;-57
2024/04/13 06:05:54;;;;;;;;;;;;;;;;;;5425949;26;4665;-57
2024/04/13 06:08:19;;;;;;;;;;;;;;;;;;5414339;26;3412;-57
2024/04/13 06:10:44;;;;;;;;;;;;;;;;;;5437428;26;5273;-57
2024/04/13 06:13:10;;;;;;;;;;;;;;;;;;5422600;26;5160;-57
2024/04/13 06:15:38;;;;;;;;;;;;;;;;;;5425993;26;5353;-57
2024/04/13 06:18:03;;;;;;;;;;;;;;;;;;5427624;26;4609;-57
2024/04/13 06:20:29;;;;;;;;;;;;;;;;;;5437815;26;3267;-57
2024/04/13 06:22:54;;;;;;;;;;;;;;;;;;5424289;26;5005;-58
2024/04/13 06:25:20;;;;;;;;;;;;;;;;;;5424830;26;5812;-57
2024/04/13 06:27:45;;;;;;;;;;;;;;;;;;5420820;26;5330;-58
2024/04/13 06:30:13;;;;;;;;;;;;;;;;;;5414803;26;5222;-57
2024/04/13 06:32:38;;;;;;;;;;;;;;;;;;5393804;26;1370;-57
2024/04/13 06:35:04;;;;;;;;;;;;;;;;;;5388959;26;4592;-57
2024/04/13 06:37:30;;;;;;;;;;;;;;;;;;5393056;26;5370;-57
2024/04/13 06:39:55;;;;;;;;;;;;;;;;;;5380025;26;5209;-57
2024/04/13 06:42:20;;;;;;;;;;;;;;;;;;5380426;26;5171;-56
2024/04/13 06:44:46;;;;;;;;;;;;;;;;;;5382802;26;5170;-56
2024/04/13 06:47:11;;;;;;;;;;;;;;;;;;5393744;26;3598;-57
2024/04/13 06:49:37;;;;;;;;;;;;;;;;;;5387300;26;4551;-57
2024/04/13 06:52:02;;;;;;;;;;;;;;;;;;5382398;26;4811;-59
2024/04/13 06:54:28;;;;;;;;;;;;;;;;;;5388614;26;4750;-57
2024/04/13 06:56:53;;;;;;;;;;;;;;;;;;5383371;26;5254;-59
2024/04/13 06:59:18;;;;;;;;;;;;;;;;;;5384150;26;3461;-59
2024/04/13 07:01:44;;;;;;;;;;;;;;;;;;5397349;26;4535;-57
2024/04/13 07:04:09;;;;;;;;;;;;;;;;;;5405802;26;5081;-57
2024/04/13 07:06:36;;;;;;;;;;;;;;;;;;5412765;26;5161;-57
2024/04/13 07:09:02;;;;;;;;;;;;;;;;;;5413063;26;5729;-57
2024/04/13 07:11:27;;;;;;;;;;;;;;;;;;5394873;26;3541;-55
2024/04/13 07:13:53;;;;;;;;;;;;;;;;;;5390829;26;5100;-56
2024/04/13 07:16:18;;;;;;;;;;;;;;;;;;5394817;26;4738;-74
2024/04/13 07:18:43;;;;;;;;;;;;;;;;;;5386732;26;5194;-68
2024/04/13 07:21:09;;;;;;;;;;;;;;;;;;5392147;26;4697;-68
2024/04/13 07:23:34;;;;;;;;;;;;;;;;;;5389067;26;3761;-69
2024/04/13 07:26:00;;;;;;;;;;;;;;;;;;5436719;26;5268;-68
2024/04/13 07:28:25;;;;;;;;;;;;;;;;;;5398032;26;4689;-72
2024/04/13 07:30:51;;;;;;;;;;;;;;;;;;5433043;26;4570;-68
2024/04/13 07:33:16;;;;;;;;;;;;;;;;;;5427629;26;4676;-65
2024/04/13 07:35:41;;;;;;;;;;;;;;;;;;5426516;26;3397;-67
2024/04/13 07:38:07;;;;;;;;;;;;;;;;;;5432796;26;4521;-69
2024/04/13 07:40:32;;;;;;;;;;;;;;;;;;5430489;26;5320;-69
2024/04/13 07:42:57;;;;;;;;;;;;;;;;;;5422945;26;4551;-68
2024/04/13 07:45:23;;;;;;;;;;;;;;;;;;5425023;26;5117;-63
2024/04/13 07:47:48;;;;;;;;;;;;;;;;;;5428096;26;5254;-71
2024/04/13 07:50:14;;;;;;;;;;;;;;;;;;5429004;26;4032;-73
2024/04/13 07:52:39;;;;;;;;;;;;;;;;;;5434234;26;5091;-75
2024/04/13 07:55:05;;;;;;;;;;;;;;;;;;5421234;26;5049;-72
2024/04/13 07:57:30;;;;;;;;;;;;;;;;;;5426650;26;5192;-68
2024/04/13 07:59:56;;;;;;;;;;;;;;;;;;5426582;26;5124;-75
2024/04/13 08:02:21;;;;;;;;;;;;;;;;;;5429428;26;3522;-76
2024/04/13 08:04:47;;;;;;;;;;;;;;;;;;5425934;26;5236;-73
2024/04/13 08:07:12;;;;;;;;;;;;;;;;;;5423905;26;5259;-77
2024/04/13 08:09:41;;;;;;;;;;;;;;;;;;5427701;26;5218;-76
2024/04/13 08:12:06;;;;;;;;;;;;;;;;;;5420562;26;5078;-71
2024/04/13 08:14:32;;;;;;;;;;;;;;;;;;5427413;26;3474;-73
2024/04/13 08:16:57;;;;;;;;;;;;;;;;;;5424591;26;5111;-72
2024/04/13 08:19:22;;;;;;;;;;;;;;;;;;5428948;26;5245;-68
2024/04/13 08:21:48;;;;;;;;;;;;;;;;;;5414337;26;4685;-66
2024/04/13 08:24:13;;;;;;;;;;;;;;;;;;5419011;26;4688;-69
2024/04/13 08:26:39;;;;;;;;;;;;;;;;;;5430182;26;3614;-68
2024/04/13 08:29:04;;;;;;;;;;;;;;;;;;5416410;26;5220;-68
2024/04/13 08:31:29;;;;;;;;;;;;;;;;;;5426985;26;5127;-68
2024/04/13 08:33:55;;;;;;;;;;;;;;;;;;5422100;26;4516;-69
2024/04/13 08:36:20;;;;;;;;;;;;;;;;;;5425622;26;4667;-69
2024/04/13 08:38:46;;;;;;;;;;;;;;;;;;5416491;26;3629;-62
2024/04/13 08:41:12;;;;;;;;;;;;;;;;;;5381715;26;4548;-73
2024/04/13 08:43:37;;;;;;;;;;;;;;;;;;5388729;26;4730;-73
2024/04/13 08:46:07;;;;;;;;;;;;;;;;;;5387834;26;5121;-67
2024/04/13 08:48:34;;;;;;;;;;;;;;;;;;5410668;26;4682;-67
2024/04/13 08:51:00;;;;;;;;;;;;;;;;;;5414401;26;4667;-68
2024/04/13 08:53:25;;;;;;;;;;;;;;;;;;5417257;26;3534;-69
2024/04/13 08:55:53;;;;;;;;;;;;;;;;;;5422033;26;5113;-69
2024/04/13 08:58:18;;;;;;;;;;;;;;;;;;5415934;26;5051;-68
2024/04/13 09:00:44;;;;;;;;;;;;;;;;;;5415948;26;5138;-75
2024/04/13 09:03:10;;;;;;;;;;;;;;;;;;5390742;26;5202;-74
2024/04/13 09:05:36;;;;;;;;;;;;;;;;;;5374116;26;3545;-71
2024/04/13 09:08:03;;;;;;;;;;;;;;;;;;5387864;26;4450;-72
2024/04/13 09:10:29;;;;;;;;;;;;;;;;;;5385743;26;5246;-69
2024/04/13 09:12:54;;;;;;;;;;;;;;;;;;5383612;26;5039;-73
2024/04/13 09:15:20;;;;;;;;;;;;;;;;;;5402560;26;4549;-69
2024/04/13 09:17:45;;;;;;;;;;;;;;;;;;5356535;26;3578;-70
2024/04/13 09:20:11;;;;;;;;;;;;;;;;;;5421203;26;5010;-68
2024/04/13 09:22:37;;;;;;;;;;;;;;;;;;5434550;26;4739;-72
2024/04/13 09:25:03;;;;;;;;;;;;;;;;;;5418287;26;5202;-72
2024/04/13 09:27:30;;;;;;;;;;;;;;;;;;5431550;26;5210;-72
2024/04/13 09:30:05;;;;;;;;;;;;;;;;;;5420193;26;4577;-77
2024/04/13 09:32:31;;;;;;;;;;;;;;;;;;5421199;26;3674;-75
2024/04/13 09:34:56;;;;;;;;;;;;;;;;;;5399301;26;5486;-76
2024/04/13 09:37:21;;;;;;;;;;;;;;;;;;5415769;26;5658;-75
2024/04/13 09:39:47;;;;;;;;;;;;;;;;;;5430103;26;5153;-77
2024/04/13 09:42:12;;;;;;;;;;;;;;;;;;5416008;26;5293;-74
2024/04/13 09:44:38;;;;;;;;;;;;;;;;;;5392492;26;3573;-72
2024/04/13 09:47:04;;;;;;;;;;;;;;;;;;5401137;26;5157;-72
2024/04/13 09:49:29;;;;;;;;;;;;;;;;;;5406916;26;5173;-73
2024/04/13 09:51:58;;;;;;;;;;;;;;;;;;5430401;26;5132;-73
2024/04/13 09:54:29;;;;;;;;;;;;;;;;;;5423636;26;4544;-73
2024/04/13 09:56:54;;;;;;;;;;;;;;;;;;5422577;26;5046;-71
2024/04/13 09:59:22;;;;;;;;;;;;;;;;;;5426203;26;3601;-73
2024/04/13 10:01:48;;;;;;;;;;;;;;;;;;5428549;26;5162;-66
2024/04/13 10:04:13;;;;;;;;;;;;;;;;;;5431084;26;5240;-74
2024/04/13 10:06:39;;;;;;;;;;;;;;;;;;5415683;26;5555;-69
2024/04/13 10:09:04;;;;;;;;;;;;;;;;;;5423479;26;5096;-71
2024/04/13 10:11:30;;;;;;;;;;;;;;;;;;5429716;26;3527;-69
2024/04/13 10:13:55;;;;;;;;;;;;;;;;;;5425423;26;5158;-70
2024/04/13 10:16:20;;;;;;;;;;;;;;;;;;5410773;26;5121;-70
2024/04/13 10:18:47;;;;;;;;;;;;;;;;;;5431859;26;5323;-70
2024/04/13 10:21:13;;;;;;;;;;;;;;;;;;5414399;26;4760;-69
2024/04/13 10:23:39;;;;;;;;;;;;;;;;;;5385417;26;4190;-74
2024/04/13 10:26:05;;;;;;;;;;;;;;;;;;5402959;26;4628;-75
2024/04/13 10:28:31;;;;;;;;;;;;;;;;;;5403875;26;5121;-74
2024/04/13 10:30:56;;;;;;;;;;;;;;;;;;5413626;26;4727;-77
2024/04/13 10:33:25;;;;;;;;;;;;;;;;;;5431148;26;5111;-67
2024/04/13 10:35:54;;;;;;;;;;;;;;;;;;5420055;26;4606;-69
2024/04/13 10:38:19;;;;;;;;;;;;;;;;;;5409635;26;3506;-69
2024/04/13 10:40:45;;;;;;;;;;;;;;;;;;5419991;26;5823;-67
2024/04/13 10:43:20;;;;;;;;;;;;;;;;;;5433388;26;5164;-72
2024/04/13 10:45:52;;;;;;;;;;;;;;;;;;5414939;26;5105;-69
2024/04/13 10:48:18;;;;;;;;;;;;;;;;;;5422366;26;5176;-67
2024/04/13 10:50:44;;;;;;;;;;;;;;;;;;5433616;26;1377;-70
2024/04/13 10:53:12;;;;;;;;;;;;;;;;;;5381207;26;5147;-66
2024/04/13 10:55:38;;;;;;;;;;;;;;;;;;5380991;26;5220;-69
2024/04/13 10:58:04;;;;;;;;;;;;;;;;;;5386341;26;5088;-66
2024/04/13 11:00:29;;;;;;;;;;;;;;;;;;5387795;26;5155;-69
2024/04/13 11:02:54;;;;;;;;;;;;;;;;;;5383814;26;4794;-71
2024/04/13 11:05:20;;;;;;;;;;;;;;;;;;5381603;26;3654;-68
2024/04/13 11:07:45;;;;;;;;;;;;;;;;;;5415082;26;4512;-69
2024/04/13 11:10:10;;;;;;;;;;;;;;;;;;5425475;26;5097;-70
2024/04/13 11:12:36;;;;;;;;;;;;;;;;;;5413624;26;5269;-70
2024/04/13 11:15:02;;;;;;;;;;;;;;;;;;5422824;26;5242;-71
2024/04/13 11:17:27;;;;;;;;;;;;;;;;;;5423106;26;3950;-70
2024/04/13 11:19:53;;;;;;;;;;;;;;;;;;5415317;26;5181;-69
2024/04/13 11:22:18;;;;;;;;;;;;;;;;;;5430772;26;5224;-64
2024/04/13 11:24:44;;;;;;;;;;;;;;;;;;5413979;26;5661;-68
2024/04/13 11:27:09;;;;;;;;;;;;;;;;;;5420132;26;5265;-67
2024/04/13 11:29:34;;;;;;;;;;;;;;;;;;5419765;26;3786;-67
2024/04/13 11:32:00;;;;;;;;;;;;;;;;;;5431241;26;5093;-65
2024/04/13 11:34:25;;;;;;;;;;;;;;;;;;5409498;26;5226;-66
2024/04/13 11:37:00;;;;;;;;;;;;;;;;;;5423929;26;4686;-65
2024/04/13 11:39:25;;;;;;;;;;;;;;;;;;5415850;26;5099;-71
2024/04/13 11:41:52;;;;;;;;;;;;;;;;;;5423483;26;5200;-67
2024/04/13 11:44:17;;;;;;;;;;;;;;;;;;5433970;26;3492;-66
2024/04/13 11:46:43;;;;;;;;;;;;;;;;;;5424640;26;5177;-69
2024/04/13 11:49:08;;;;;;;;;;;;;;;;;;5416665;26;4599;-65
2024/04/13 11:51:33;;;;;;;;;;;;;;;;;;5411538;26;5284;-66
2024/04/13 11:53:59;;;;;;;;;;;;;;;;;;5389182;26;5283;-65
2024/04/13 11:56:25;;;;;;;;;;;;;;;;;;5428507;26;3548;-68
2024/04/13 11:58:51;;;;;;;;;;;;;;;;;;5431728;26;5029;-64
2024/04/13 12:01:17;;;;;;;;;;;;;;;;;;5422488;26;5256;-69
2024/04/13 12:03:42;;;;;;;;;;;;;;;;;;5390960;26;4809;-68
2024/04/13 12:06:08;;;;;;;;;;;;;;;;;;5416127;26;5133;-68
2024/04/13 12:08:33;;;;;;;;;;;;;;;;;;5413084;26;3749;-70
2024/04/13 12:10:59;;;;;;;;;;;;;;;;;;5429259;26;5057;-69
2024/04/13 12:13:24;;;;;;;;;;;;;;;;;;5412733;26;5126;-69
2024/04/13 12:15:50;;;;;;;;;;;;;;;;;;5422129;26;5206;-66
2024/04/13 12:18:15;;;;;;;;;;;;;;;;;;5422574;26;5093;-67
2024/04/13 12:20:41;;;;;;;;;;;;;;;;;;5423428;26;3540;-67
2024/04/13 12:23:06;;;;;;;;;;;;;;;;;;5430043;26;5229;-73
2024/04/13 12:25:31;;;;;;;;;;;;;;;;;;5442887;26;5230;-72
2024/04/13 12:27:59;;;;;;;;;;;;;;;;;;5424673;26;5223;-73
2024/04/13 12:30:24;;;;;;;;;;;;;;;;;;5469684;26;5097;-67
2024/04/13 12:32:49;;;;;;;;;;;;;;;;;;5467771;26;4798;-67
2024/04/13 12:35:17;;;;;;;;;;;;;;;;;;5455255;26;3600;-69
2024/04/13 12:37:43;;;;;;;;;;;;;;;;;;5441130;26;5170;-66
2024/04/13 12:40:08;;;;;;;;;;;;;;;;;;5460854;26;4534;-65
2024/04/13 12:42:34;;;;;;;;;;;;;;;;;;5454260;26;5092;-68
2024/04/13 12:44:59;;;;;;;;;;;;;;;;;;5470509;26;5121;-70
2024/04/13 12:47:25;;;;;;;;;;;;;;;;;;5461165;26;3285;-72
2024/04/13 12:49:52;;;;;;;;;;;;;;;;;;5422627;26;4716;-73
2024/04/13 12:52:17;;;;;;;;;;;;;;;;;;5468752;26;4745;-71
2024/04/13 12:54:43;;;;;;;;;;;;;;;;;;5453655;26;5048;-70
2024/04/13 12:57:08;;;;;;;;;;;;;;;;;;5429418;26;5087;-73
2024/04/13 12:59:33;;;;;;;;;;;;;;;;;;5401611;26;3563;-71
2024/04/13 13:02:00;;;;;;;;;;;;;;;;;;5423784;26;5035;-71
2024/04/13 13:04:25;;;;;;;;;;;;;;;;;;5390403;26;4639;-73
2024/04/13 13:06:52;;;;;;;;;;;;;;;;;;5447868;26;5178;-77
2024/04/13 13:09:17;;;;;;;;;;;;;;;;;;5427630;26;5181;-70
2024/04/13 13:11:42;;;;;;;;;;;;;;;;;;5434370;26;3895;-69
2024/04/13 13:14:08;;;;;;;;;;;;;;;;;;5438660;26;5090;-70
2024/04/13 13:16:33;;;;;;;;;;;;;;;;;;5397372;26;5132;-77
2024/04/13 13:18:58;;;;;;;;;;;;;;;;;;5460153;26;5757;-76
2024/04/13 13:21:24;;;;;;;;;;;;;;;;;;5390684;26;4814;-72
2024/04/13 13:23:50;;;;;;;;;;;;;;;;;;5434758;26;5298;-69
2024/04/13 13:26:15;;;;;;;;;;;;;;;;;;5434357;26;3870;-68
2024/04/13 13:28:40;;;;;;;;;;;;;;;;;;5441702;26;5266;-69
2024/04/13 13:31:06;;;;;;;;;;;;;;;;;;5414400;26;5115;-70
2024/04/13 13:33:31;;;;;;;;;;;;;;;;;;5430209;26;5135;-73
2024/04/13 13:35:57;;;;;;;;;;;;;;;;;;5434710;26;5283;-69
2024/04/13 13:38:23;;;;;;;;;;;;;;;;;;5436026;26;3498;-71
2024/04/13 13:40:48;;;;;;;;;;;;;;;;;;5409641;26;5198;-67
2024/04/13 13:43:13;;;;;;;;;;;;;;;;;;5432038;26;5217;-69
2024/04/13 13:45:40;;;;;;;;;;;;;;;;;;5437441;26;4822;-67
2024/04/13 13:48:05;;;;;;;;;;;;;;;;;;5440215;26;5245;-71
2024/04/13 13:50:31;;;;;;;;;;;;;;;;;;5443136;26;3507;-70
2024/04/13 13:52:57;;;;;;;;;;;;;;;;;;5432356;26;4537;-71
2024/04/13 13:55:22;;;;;;;;;;;;;;;;;;5438117;26;5203;-68
2024/04/13 13:57:48;;;;;;;;;;;;;;;;;;5391379;26;4543;-67
2024/04/13 14:00:13;;;;;;;;;;;;;;;;;;5427034;26;5099;-67
2024/04/13 14:02:38;;;;;;;;;;;;;;;;;;5428193;26;3515;-65
2024/04/13 14:05:04;;;;;;;;;;;;;;;;;;5422761;26;5270;-72
2024/04/13 14:07:30;;;;;;;;;;;;;;;;;;5442630;26;5155;-68
2024/04/13 14:09:55;;;;;;;;;;;;;;;;;;5441428;26;5127;-66
2024/04/13 14:12:20;;;;;;;;;;;;;;;;;;5421269;26;5116;-67
2024/04/13 14:14:46;;;;;;;;;;;;;;;;;;5452308;26;5310;-68
2024/04/13 14:17:11;;;;;;;;;;;;;;;;;;5458317;26;3491;-67
2024/04/13 14:19:37;;;;;;;;;;;;;;;;;;5476343;26;4769;-66
2024/04/13 14:22:02;;;;;;;;;;;;;;;;;;5465761;26;4738;-67
2024/04/13 14:24:28;;;;;;;;;;;;;;;;;;5455436;26;5156;-63
2024/04/13 14:26:53;;;;;;;;;;;;;;;;;;5450658;26;5546;-62
2024/04/13 14:29:18;;;;;;;;;;;;;;;;;;5463068;26;3401;-65
2024/04/13 14:31:44;;;;;;;;;;;;;;;;;;5463903;26;5238;-66
2024/04/13 14:34:12;;;;;;;;;;;;;;;;;;5465970;26;5070;-67
2024/04/13 14:36:38;;;;;;;;;;;;;;;;;;5435993;26;5165;-66
2024/04/13 14:39:03;;;;;;;;;;;;;;;;;;5456067;26;5149;-65
2024/04/13 14:41:31;;;;;;;;;;;;;;;;;;5466590;26;3524;-65
2024/04/13 14:43:57;;;;;;;;;;;;;;;;;;5469565;26;5114;-66
2024/04/13 14:46:22;;;;;;;;;;;;;;;;;;5470931;26;5157;-66
2024/04/13 14:48:48;;;;;;;;;;;;;;;;;;5470722;26;5276;-72
2024/04/13 14:51:13;;;;;;;;;;;;;;;;;;5464525;26;5206;-70
2024/04/13 14:53:39;;;;;;;;;;;;;;;;;;5474728;26;3494;-63
2024/04/13 14:56:04;;;;;;;;;;;;;;;;;;5463891;26;5162;-70
2024/04/13 14:58:30;;;;;;;;;;;;;;;;;;5468386;26;5171;-70
2024/04/13 15:01:07;;;;;;;;;;;;;;;;;;5477587;26;5179;-70
2024/04/13 15:03:36;;;;;;;;;;;;;;;;;;5434371;26;5390;-73
2024/04/13 15:06:01;;;;;;;;;;;;;;;;;;5441423;26;5522;-71
2024/04/13 15:08:26;;;;;;;;;;;;;;;;;;5468391;26;3585;-67
2024/04/13 15:10:52;;;;;;;;;;;;;;;;;;5459517;26;5204;-69
2024/04/13 15:13:17;;;;;;;;;;;;;;;;;;5458950;26;4579;-64
2024/04/13 15:15:46;;;;;;;;;;;;;;;;;;5469583;26;5298;-65
2024/04/13 15:18:11;;;;;;;;;;;;;;;;;;5471264;26;5361;-65
2024/04/13 15:20:36;;;;;;;;;;;;;;;;;;5464404;26;3664;-62
2024/04/13 15:23:03;;;;;;;;;;;;;;;;;;5469367;26;5653;-68
2024/04/13 15:25:28;;;;;;;;;;;;;;;;;;5471679;26;4813;-64
2024/04/13 15:27:54;;;;;;;;;;;;;;;;;;5478035;26;5270;-65
2024/04/13 15:30:19;;;;;;;;;;;;;;;;;;5465174;26;5939;-64
2024/04/13 15:32:45;;;;;;;;;;;;;;;;;;5477936;26;3263;-65
2024/04/13 15:35:10;;;;;;;;;;;;;;;;;;5475601;26;4631;-62
2024/04/13 15:37:36;;;;;;;;;;;;;;;;;;5479310;26;4659;-62
2024/04/13 15:40:02;;;;;;;;;;;;;;;;;;5464924;26;4588;-58
2024/04/13 15:42:27;;;;;;;;;;;;;;;;;;5461549;26;5130;-57
2024/04/13 15:44:53;;;;;;;;;;;;;;;;;;5469485;26;5151;-57
2024/04/13 15:47:18;;;;;;;;;;;;;;;;;;5468928;26;3542;-58
2024/04/13 15:49:44;;;;;;;;;;;;;;;;;;5455586;26;4708;-58
2024/04/13 15:52:09;;;;;;;;;;;;;;;;;;5469888;26;5135;-58
2024/04/13 15:54:35;;;;;;;;;;;;;;;;;;5469845;26;4526;-58
2024/04/13 15:57:00;;;;;;;;;;;;;;;;;;5470907;26;5305;-58
2024/04/13 15:59:26;;;;;;;;;;;;;;;;;;5476031;26;1246;-57
2024/04/13 16:01:51;;;;;;;;;;;;;;;;;;5467333;26;4513;-57
2024/04/13 16:04:16;;;;;;;;;;;;;;;;;;5469410;26;5171;-58
2024/04/13 16:06:42;;;;;;;;;;;;;;;;;;5438067;26;5113;-58
2024/04/13 16:09:07;;;;;;;;;;;;;;;;;;5472137;26;5673;-58
2024/04/13 16:11:33;;;;;;;;;;;;;;;;;;5445566;26;1274;-57
2024/04/13 16:13:58;;;;;;;;;;;;;;;;;;5457380;26;5140;-58
2024/04/13 16:16:25;;;;;;;;;;;;;;;;;;5467788;26;4581;-57
2024/04/13 16:18:51;;;;;;;;;;;;;;;;;;5428765;26;5205;-57
2024/04/13 16:21:17;;;;;;;;;;;;;;;;;;5478000;26;5153;-57
2024/04/13 16:23:42;;;;;;;;;;;;;;;;;;5467512;26;3581;-57
2024/04/13 16:26:08;;;;;;;;;;;;;;;;;;5467224;26;5202;-58
2024/04/13 16:28:33;;;;;;;;;;;;;;;;;;5472497;26;5439;-58
2024/04/13 16:31:00;;;;;;;;;;;;;;;;;;5462059;26;4750;-57
2024/04/13 16:33:26;;;;;;;;;;;;;;;;;;5457619;26;5247;-58
2024/04/13 16:35:51;;;;;;;;;;;;;;;;;;5452914;26;5178;-58
2024/04/13 16:38:17;;;;;;;;;;;;;;;;;;5465078;26;3364;-58
2024/04/13 16:40:43;;;;;;;;;;;;;;;;;;5481675;26;5181;-57
2024/04/13 16:43:08;;;;;;;;;;;;;;;;;;5473811;26;5122;-57
2024/04/13 16:45:33;;;;;;;;;;;;;;;;;;5464073;26;4543;-58
2024/04/13 16:47:59;;;;;;;;;;;;;;;;;;5483331;26;5168;-58
2024/04/13 16:50:24;;;;;;;;;;;;;;;;;;5467762;26;1362;-57
2024/04/13 16:52:50;;;;;;;;;;;;;;;;;;5468164;26;4536;-58